createdAt,value
2023-08-12T00:01:00.448Z,0
2023-08-12T00:02:14.741Z,0
2023-08-12T00:03:29.034Z,0
2023-08-12T00:04:43.326Z,0
2023-08-12T00:05:57.618Z,0
2023-08-12T00:07:11.911Z,0
2023-08-12T00:08:26.203Z,0
2023-08-12T00:09:40.496Z,0
2023-08-12T00:10:53.804Z,0
2023-08-12T00:12:08.097Z,0
2023-08-12T00:13:22.389Z,0
2023-08-12T00:14:36.678Z,0
2023-08-12T00:15:50.974Z,0
2023-08-12T00:17:05.267Z,0
2023-08-12T00:18:19.559Z,0
2023-08-12T00:19:33.852Z,0
2023-08-12T00:20:48.144Z,0
2023-08-12T00:22:02.436Z,0
2023-08-12T00:23:16.729Z,0
2023-08-12T00:24:31.022Z,0
2023-08-12T00:25:45.314Z,0
2023-08-12T00:26:58.623Z,0
2023-08-12T00:28:12.915Z,0
2023-08-12T00:29:27.208Z,0
2023-08-12T00:30:41.501Z,0
2023-08-12T00:31:55.793Z,0
2023-08-12T00:33:10.086Z,0
2023-08-12T00:34:24.378Z,0
2023-08-12T00:35:38.671Z,0
2023-08-12T00:36:52.963Z,0
2023-08-12T00:38:07.256Z,0
2023-08-12T00:39:21.548Z,0
2023-08-12T00:40:35.841Z,0
2023-08-12T00:41:50.133Z,0
2023-08-12T00:43:03.442Z,0
2023-08-12T00:44:17.734Z,0
2023-08-12T00:45:32.026Z,0
2023-08-12T00:46:46.319Z,0
2023-08-12T00:48:00.612Z,0
2023-08-12T00:49:14.904Z,0
2023-08-12T00:50:29.196Z,0
2023-08-12T00:51:43.489Z,0
2023-08-12T00:52:57.782Z,0
2023-08-12T00:54:12.075Z,0
2023-08-12T00:55:26.367Z,0
2023-08-12T00:56:40.660Z,0
2023-08-12T00:57:54.952Z,0
2023-08-12T00:59:08.261Z,0
2023-08-12T01:00:22.553Z,0
2023-08-12T01:01:36.846Z,0
2023-08-12T01:02:51.138Z,0
2023-08-12T01:04:05.431Z,0
2023-08-12T01:05:19.723Z,0
2023-08-12T01:06:34.016Z,0
2023-08-12T01:07:48.309Z,0
2023-08-12T01:09:02.601Z,0
2023-08-12T01:10:16.894Z,0
2023-08-12T01:11:31.186Z,0
2023-08-12T01:12:45.479Z,0
2023-08-12T01:13:59.771Z,0
2023-08-12T01:15:13.080Z,0
2023-08-12T01:16:27.372Z,0
2023-08-12T01:17:41.665Z,0
2023-08-12T01:18:55.957Z,0
2023-08-12T01:20:10.250Z,0
2023-08-12T01:21:24.542Z,0
2023-08-12T01:22:38.835Z,0
2023-08-12T01:23:53.127Z,0
2023-08-12T01:25:07.420Z,0
2023-08-12T01:26:21.712Z,0
2023-08-12T01:27:36.005Z,0
2023-08-12T01:28:50.297Z,0
2023-08-12T01:30:04.590Z,0
2023-08-12T01:31:17.899Z,0
2023-08-12T01:32:32.191Z,0
2023-08-12T01:33:46.484Z,0
2023-08-12T01:35:00.776Z,0
2023-08-12T01:36:15.068Z,0
2023-08-12T01:37:29.361Z,0
2023-08-12T01:38:43.653Z,0
2023-08-12T01:39:57.947Z,0
2023-08-12T01:41:12.241Z,0
2023-08-12T01:42:26.533Z,0
2023-08-12T01:43:40.825Z,0
2023-08-12T01:44:55.118Z,0
2023-08-12T01:46:09.410Z,0
2023-08-12T01:47:22.719Z,0
2023-08-12T01:48:37.012Z,0
2023-08-12T01:49:51.304Z,0
2023-08-12T01:51:05.597Z,0
2023-08-12T01:52:19.889Z,0
2023-08-12T01:53:34.182Z,0
2023-08-12T01:54:48.474Z,0
2023-08-12T01:56:02.767Z,0
2023-08-12T01:57:17.059Z,0
2023-08-12T01:58:31.352Z,0
2023-08-12T01:59:45.644Z,0
2023-08-12T02:00:59.937Z,0
2023-08-12T02:02:14.230Z,0
2023-08-12T02:03:27.538Z,0
2023-08-12T02:04:41.832Z,0
2023-08-12T02:05:56.124Z,0
2023-08-12T02:07:10.417Z,0
2023-08-12T02:08:24.709Z,0
2023-08-12T02:09:39.002Z,0
2023-08-12T02:10:53.294Z,0
2023-08-12T02:12:07.587Z,0
2023-08-12T02:13:21.879Z,0
2023-08-12T02:14:36.172Z,0
2023-08-12T02:15:50.464Z,0
2023-08-12T02:17:04.757Z,0
2023-08-12T02:18:19.049Z,0
2023-08-12T02:19:32.358Z,0
2023-08-12T02:20:46.650Z,0
2023-08-12T02:22:00.943Z,0
2023-08-12T02:23:15.235Z,0
2023-08-12T02:24:29.528Z,0
2023-08-12T02:25:43.820Z,0
2023-08-12T02:26:58.113Z,0
2023-08-12T02:28:12.406Z,0
2023-08-12T02:29:26.699Z,0
2023-08-12T02:30:40.991Z,0
2023-08-12T02:31:55.283Z,0
2023-08-12T02:33:09.576Z,0
2023-08-12T02:34:23.869Z,0
2023-08-12T02:35:37.177Z,0
2023-08-12T02:36:51.470Z,0
2023-08-12T02:38:05.762Z,0
2023-08-12T02:39:20.055Z,0
2023-08-12T02:40:34.347Z,0
2023-08-12T02:41:48.640Z,0
2023-08-12T02:43:01.953Z,0
2023-08-12T02:44:16.246Z,0
2023-08-12T02:45:30.539Z,0
2023-08-12T02:46:44.831Z,0
2023-08-12T02:47:59.123Z,0
2023-08-12T02:49:13.416Z,0
2023-08-12T02:50:27.708Z,0
2023-08-12T02:51:42.001Z,0
2023-08-12T02:52:56.293Z,0
2023-08-12T02:54:10.588Z,0
2023-08-12T02:55:24.879Z,0
2023-08-12T02:56:39.171Z,0
2023-08-12T02:57:53.464Z,0
2023-08-12T02:59:06.772Z,0
2023-08-12T03:00:21.065Z,0
2023-08-12T03:01:35.357Z,0
2023-08-12T03:02:49.649Z,0
2023-08-12T03:04:03.942Z,0
2023-08-12T03:05:18.234Z,0
2023-08-12T03:06:32.527Z,0
2023-08-12T03:07:46.820Z,0
2023-08-12T03:09:01.112Z,0
2023-08-12T03:10:15.405Z,0
2023-08-12T03:11:29.697Z,0
2023-08-12T03:12:43.936Z,0
2023-08-12T03:13:58.228Z,0
2023-08-12T03:15:11.537Z,0
2023-08-12T03:16:25.787Z,0
2023-08-12T03:17:40.025Z,0
2023-08-12T03:18:54.318Z,0
2023-08-12T03:20:08.611Z,0
2023-08-12T03:21:22.861Z,0
2023-08-12T03:22:37.099Z,0
2023-08-12T03:23:51.393Z,0
2023-08-12T03:25:05.643Z,0
2023-08-12T03:26:19.881Z,0
2023-08-12T03:27:34.120Z,0
2023-08-12T03:28:48.358Z,0
2023-08-12T03:30:02.597Z,0
2023-08-12T03:31:15.852Z,0
2023-08-12T03:32:30.090Z,0
2023-08-12T03:33:44.329Z,0
2023-08-12T03:34:58.567Z,0
2023-08-12T03:36:12.806Z,0
2023-08-12T03:37:27.044Z,0
2023-08-12T03:38:41.283Z,0
2023-08-12T03:39:55.521Z,0
2023-08-12T03:41:09.760Z,0
2023-08-12T03:42:23.998Z,0
2023-08-12T03:43:38.237Z,0
2023-08-12T03:44:52.475Z,0
2023-08-12T03:46:06.714Z,0
2023-08-12T03:47:19.968Z,5
2023-08-12T03:48:34.207Z,5
2023-08-12T03:49:48.446Z,5
2023-08-12T03:51:02.684Z,5
2023-08-12T03:52:16.923Z,5
2023-08-12T03:53:31.161Z,5
2023-08-12T03:54:45.400Z,5
2023-08-12T03:55:59.638Z,5
2023-08-12T03:57:13.878Z,5
2023-08-12T03:58:28.116Z,5
2023-08-12T03:59:42.355Z,11
2023-08-12T04:00:56.594Z,11
2023-08-12T04:02:10.832Z,11
2023-08-12T04:03:24.087Z,11
2023-08-12T04:04:38.325Z,11
2023-08-12T04:05:52.564Z,11
2023-08-12T04:07:06.802Z,16
2023-08-12T04:08:21.041Z,16
2023-08-12T04:09:35.279Z,16
2023-08-12T04:10:49.518Z,16
2023-08-12T04:12:03.757Z,16
2023-08-12T04:13:17.995Z,22
2023-08-12T04:14:32.234Z,22
2023-08-12T04:15:46.473Z,22
2023-08-12T04:17:00.711Z,22
2023-08-12T04:18:14.949Z,28
2023-08-12T04:19:28.204Z,28
2023-08-12T04:20:42.443Z,28
2023-08-12T04:21:56.682Z,28
2023-08-12T04:23:10.920Z,33
2023-08-12T04:24:25.159Z,33
2023-08-12T04:25:39.397Z,33
2023-08-12T04:26:53.636Z,33
2023-08-12T04:28:07.874Z,39
2023-08-12T04:29:22.112Z,39
2023-08-12T04:30:36.351Z,39
2023-08-12T04:31:50.590Z,45
2023-08-12T04:33:04.828Z,45
2023-08-12T04:34:19.067Z,50
2023-08-12T04:35:32.321Z,50
2023-08-12T04:36:46.560Z,50
2023-08-12T04:38:00.798Z,56
2023-08-12T04:39:15.037Z,56
2023-08-12T04:40:29.275Z,56
2023-08-12T04:41:43.514Z,56
2023-08-12T04:42:57.753Z,56
2023-08-12T04:44:11.992Z,56
2023-08-12T04:45:26.231Z,61
2023-08-12T04:46:40.469Z,61
2023-08-12T04:47:54.708Z,61
2023-08-12T04:49:08.946Z,67
2023-08-12T04:50:23.185Z,67
2023-08-12T04:51:36.439Z,67
2023-08-12T04:52:50.678Z,73
2023-08-12T04:54:04.917Z,73
2023-08-12T04:55:19.155Z,78
2023-08-12T04:56:33.394Z,78
2023-08-12T04:57:47.632Z,78
2023-08-12T04:59:01.870Z,90
2023-08-12T05:00:16.105Z,84
2023-08-12T05:01:30.347Z,84
2023-08-12T05:02:44.586Z,90
2023-08-12T05:03:58.825Z,90
2023-08-12T05:05:13.063Z,90
2023-08-12T05:06:27.302Z,90
2023-08-12T05:07:40.556Z,95
2023-08-12T05:08:54.795Z,95
2023-08-12T05:10:09.033Z,95
2023-08-12T05:11:23.272Z,101
2023-08-12T05:12:37.510Z,101
2023-08-12T05:13:51.749Z,101
2023-08-12T05:15:05.987Z,101
2023-08-12T05:16:20.226Z,106
2023-08-12T05:17:34.465Z,106
2023-08-12T05:18:48.703Z,106
2023-08-12T05:20:02.943Z,106
2023-08-12T05:21:17.181Z,106
2023-08-12T05:22:31.419Z,106
2023-08-12T05:23:44.674Z,112
2023-08-12T05:24:58.913Z,106
2023-08-12T05:26:13.151Z,106
2023-08-12T05:27:27.390Z,106
2023-08-12T05:28:41.628Z,101
2023-08-12T05:29:55.867Z,101
2023-08-12T05:31:10.105Z,101
2023-08-12T05:32:24.344Z,101
2023-08-12T05:33:38.582Z,101
2023-08-12T05:34:52.821Z,106
2023-08-12T05:36:07.060Z,106
2023-08-12T05:37:21.298Z,106
2023-08-12T05:38:35.537Z,106
2023-08-12T05:39:48.791Z,106
2023-08-12T05:41:03.030Z,106
2023-08-12T05:42:17.268Z,106
2023-08-12T05:43:31.507Z,106
2023-08-12T05:44:45.745Z,106
2023-08-12T05:45:59.984Z,106
2023-08-12T05:47:14.223Z,112
2023-08-12T05:48:28.461Z,106
2023-08-12T05:49:42.700Z,101
2023-08-12T05:50:56.938Z,101
2023-08-12T05:52:11.177Z,106
2023-08-12T05:53:25.415Z,101
2023-08-12T05:54:39.654Z,101
2023-08-12T05:55:52.908Z,101
2023-08-12T05:57:07.147Z,106
2023-08-12T05:58:21.386Z,112
2023-08-12T05:59:35.624Z,129
2023-08-12T06:00:49.863Z,123
2023-08-12T06:02:04.101Z,129
2023-08-12T06:03:18.340Z,135
2023-08-12T06:04:32.578Z,151
2023-08-12T06:05:46.817Z,191
2023-08-12T06:07:01.055Z,219
2023-08-12T06:08:15.294Z,225
2023-08-12T06:09:29.533Z,230
2023-08-12T06:10:43.772Z,247
2023-08-12T06:11:57.027Z,258
2023-08-12T06:13:11.265Z,264
2023-08-12T06:15:39.742Z,281
2023-08-12T06:16:53.981Z,292
2023-08-12T06:18:08.219Z,303
2023-08-12T06:19:22.458Z,315
2023-08-12T06:20:36.697Z,326
2023-08-12T06:21:50.935Z,337
2023-08-12T06:23:05.174Z,343
2023-08-12T06:24:19.412Z,354
2023-08-12T06:25:33.651Z,326
2023-08-12T06:26:47.889Z,326
2023-08-12T06:28:01.144Z,309
2023-08-12T06:29:15.382Z,298
2023-08-12T06:30:29.621Z,292
2023-08-12T06:31:43.860Z,320
2023-08-12T06:32:58.098Z,360
2023-08-12T06:34:12.336Z,292
2023-08-12T06:35:26.575Z,292
2023-08-12T06:36:40.813Z,303
2023-08-12T06:37:55.052Z,270
2023-08-12T06:39:09.290Z,286
2023-08-12T06:40:23.529Z,331
2023-08-12T06:41:37.768Z,331
2023-08-12T06:42:52.006Z,286
2023-08-12T06:44:05.261Z,270
2023-08-12T06:45:19.500Z,270
2023-08-12T06:46:33.739Z,281
2023-08-12T06:47:47.978Z,225
2023-08-12T06:49:02.216Z,219
2023-08-12T06:50:16.455Z,219
2023-08-12T06:51:29.715Z,219
2023-08-12T06:52:43.954Z,213
2023-08-12T06:53:58.193Z,213
2023-08-12T06:55:12.431Z,213
2023-08-12T06:56:26.670Z,219
2023-08-12T06:57:40.908Z,225
2023-08-12T06:58:55.147Z,230
2023-08-12T07:00:09.385Z,236
2023-08-12T07:01:23.624Z,236
2023-08-12T07:02:37.863Z,236
2023-08-12T07:03:52.101Z,230
2023-08-12T07:05:06.340Z,230
2023-08-12T07:06:20.578Z,241
2023-08-12T07:07:33.833Z,236
2023-08-12T07:08:48.072Z,247
2023-08-12T07:10:02.311Z,230
2023-08-12T07:11:16.550Z,219
2023-08-12T07:12:30.788Z,225
2023-08-12T07:13:45.027Z,213
2023-08-12T07:14:59.266Z,196
2023-08-12T07:16:13.504Z,191
2023-08-12T07:17:27.743Z,185
2023-08-12T07:18:41.981Z,180
2023-08-12T07:19:56.220Z,174
2023-08-12T07:21:10.458Z,174
2023-08-12T07:22:24.697Z,168
2023-08-12T07:23:37.951Z,168
2023-08-12T07:24:52.190Z,168
2023-08-12T07:26:06.428Z,163
2023-08-12T07:27:20.667Z,163
2023-08-12T07:28:34.905Z,157
2023-08-12T07:29:49.144Z,157
2023-08-12T07:31:03.382Z,151
2023-08-12T07:32:17.621Z,146
2023-08-12T07:33:31.859Z,146
2023-08-12T07:34:46.098Z,140
2023-08-12T07:36:00.337Z,135
2023-08-12T07:37:14.575Z,135
2023-08-12T07:38:28.814Z,135
2023-08-12T07:39:42.068Z,129
2023-08-12T07:40:56.307Z,129
2023-08-12T07:42:10.545Z,135
2023-08-12T07:43:24.783Z,135
2023-08-12T07:44:39.022Z,140
2023-08-12T07:45:53.261Z,146
2023-08-12T07:47:07.499Z,146
2023-08-12T07:48:21.738Z,146
2023-08-12T07:49:35.976Z,146
2023-08-12T07:50:50.215Z,146
2023-08-12T07:52:04.453Z,146
2023-08-12T07:53:18.692Z,146
2023-08-12T07:54:32.930Z,157
2023-08-12T07:55:46.185Z,157
2023-08-12T07:57:00.424Z,168
2023-08-12T07:58:14.662Z,174
2023-08-12T07:59:28.901Z,185
2023-08-12T08:00:43.139Z,196
2023-08-12T08:01:57.378Z,208
2023-08-12T08:03:11.616Z,225
2023-08-12T08:04:25.855Z,247
2023-08-12T08:05:40.093Z,258
2023-08-12T08:06:54.332Z,275
2023-08-12T08:08:08.571Z,292
2023-08-12T08:09:22.809Z,303
2023-08-12T08:10:37.048Z,320
2023-08-12T08:11:50.302Z,309
2023-08-12T08:13:04.541Z,298
2023-08-12T08:14:18.779Z,292
2023-08-12T08:15:33.018Z,264
2023-08-12T08:16:47.257Z,253
2023-08-12T08:18:01.496Z,241
2023-08-12T08:19:15.734Z,230
2023-08-12T08:20:29.973Z,225
2023-08-12T08:21:44.212Z,219
2023-08-12T08:22:58.450Z,208
2023-08-12T08:24:12.689Z,202
2023-08-12T08:25:26.927Z,196
2023-08-12T08:26:41.166Z,196
2023-08-12T08:27:54.421Z,202
2023-08-12T08:29:08.660Z,202
2023-08-12T08:30:22.898Z,208
2023-08-12T08:31:37.137Z,208
2023-08-12T08:32:51.376Z,202
2023-08-12T08:34:05.614Z,202
2023-08-12T08:35:19.853Z,196
2023-08-12T08:36:34.092Z,196
2023-08-12T08:37:48.330Z,191
2023-08-12T08:39:02.569Z,185
2023-08-12T08:40:16.808Z,180
2023-08-12T08:41:31.046Z,168
2023-08-12T08:42:45.285Z,157
2023-08-12T08:43:58.540Z,146
2023-08-12T08:45:12.778Z,140
2023-08-12T08:46:27.017Z,135
2023-08-12T08:47:41.256Z,129
2023-08-12T08:48:55.494Z,123
2023-08-12T08:50:09.733Z,123
2023-08-12T08:51:23.972Z,118
2023-08-12T08:52:38.211Z,112
2023-08-12T08:53:52.449Z,106
2023-08-12T08:55:06.688Z,101
2023-08-12T08:56:20.926Z,95
2023-08-12T08:57:35.165Z,95
2023-08-12T08:58:49.404Z,95
2023-08-12T09:00:02.658Z,95
2023-08-12T09:01:16.897Z,95
2023-08-12T09:02:31.136Z,95
2023-08-12T09:03:45.375Z,101
2023-08-12T09:04:59.613Z,106
2023-08-12T09:06:13.852Z,112
2023-08-12T09:07:28.091Z,118
2023-08-12T09:08:42.329Z,123
2023-08-12T09:09:56.568Z,135
2023-08-12T09:11:10.807Z,140
2023-08-12T09:12:25.045Z,157
2023-08-12T09:13:39.284Z,180
2023-08-12T09:14:53.523Z,196
2023-08-12T09:16:06.777Z,219
2023-08-12T09:17:21.016Z,247
2023-08-12T09:18:35.255Z,270
2023-08-12T09:19:49.493Z,303
2023-08-12T09:21:03.732Z,326
2023-08-12T09:22:17.971Z,360
2023-08-12T09:23:32.210Z,371
2023-08-12T09:24:46.448Z,388
2023-08-12T09:26:00.687Z,405
2023-08-12T09:27:14.925Z,416
2023-08-12T09:28:29.164Z,433
2023-08-12T09:29:43.403Z,438
2023-08-12T09:30:57.641Z,455
2023-08-12T09:32:10.896Z,444
2023-08-12T09:33:25.135Z,523
2023-08-12T09:34:39.374Z,433
2023-08-12T09:35:53.612Z,427
2023-08-12T09:37:07.851Z,433
2023-08-12T09:38:22.090Z,427
2023-08-12T09:39:36.328Z,421
2023-08-12T09:40:50.567Z,416
2023-08-12T09:42:04.806Z,405
2023-08-12T09:43:19.045Z,399
2023-08-12T09:44:33.283Z,382
2023-08-12T09:45:47.522Z,371
2023-08-12T09:47:01.760Z,343
2023-08-12T09:48:15.015Z,320
2023-08-12T09:49:29.254Z,303
2023-08-12T09:50:43.492Z,286
2023-08-12T09:51:57.731Z,275
2023-08-12T09:53:11.969Z,270
2023-08-12T09:54:26.208Z,275
2023-08-12T09:55:40.447Z,281
2023-08-12T09:56:54.685Z,292
2023-08-12T09:58:08.925Z,309
2023-08-12T09:59:23.163Z,320
2023-08-12T10:00:37.402Z,337
2023-08-12T10:01:51.640Z,348
2023-08-12T10:03:05.879Z,365
2023-08-12T10:04:19.134Z,376
2023-08-12T10:05:33.373Z,388
2023-08-12T10:06:47.611Z,399
2023-08-12T10:08:01.850Z,410
2023-08-12T10:09:16.089Z,410
2023-08-12T10:10:30.327Z,405
2023-08-12T10:11:44.566Z,393
2023-08-12T10:12:58.804Z,388
2023-08-12T10:14:13.043Z,382
2023-08-12T10:15:27.282Z,382
2023-08-12T10:16:41.521Z,376
2023-08-12T10:17:55.759Z,360
2023-08-12T10:19:09.998Z,354
2023-08-12T10:20:23.253Z,348
2023-08-12T10:21:37.492Z,354
2023-08-12T10:22:51.730Z,348
2023-08-12T10:24:05.969Z,348
2023-08-12T10:25:20.208Z,337
2023-08-12T10:26:34.447Z,320
2023-08-12T10:27:48.685Z,298
2023-08-12T10:29:02.924Z,275
2023-08-12T10:30:17.163Z,264
2023-08-12T10:31:31.401Z,247
2023-08-12T10:32:45.640Z,236
2023-08-12T10:33:59.879Z,225
2023-08-12T10:35:14.118Z,213
2023-08-12T10:36:27.373Z,213
2023-08-12T10:37:41.612Z,219
2023-08-12T10:38:55.851Z,225
2023-08-12T10:40:10.089Z,236
2023-08-12T10:41:24.328Z,247
2023-08-12T10:42:38.567Z,241
2023-08-12T10:43:52.806Z,236
2023-08-12T10:45:07.044Z,225
2023-08-12T10:46:21.283Z,213
2023-08-12T10:47:35.522Z,196
2023-08-12T10:48:49.761Z,191
2023-08-12T10:50:04.000Z,196
2023-08-12T10:51:18.238Z,225
2023-08-12T10:52:31.493Z,253
2023-08-12T10:53:45.732Z,270
2023-08-12T10:54:59.970Z,270
2023-08-12T10:56:14.209Z,258
2023-08-12T10:57:28.448Z,258
2023-08-12T10:58:42.687Z,281
2023-08-12T10:59:55.947Z,303
2023-08-12T11:01:10.185Z,331
2023-08-12T11:02:24.424Z,331
2023-08-12T11:03:38.663Z,298
2023-08-12T11:04:52.901Z,253
2023-08-12T11:06:07.140Z,196
2023-08-12T11:07:21.379Z,163
2023-08-12T11:08:35.617Z,135
2023-08-12T11:09:49.856Z,129
2023-08-12T11:11:04.095Z,118
2023-08-12T11:12:18.334Z,106
2023-08-12T11:13:32.572Z,101
2023-08-12T11:14:46.811Z,106
2023-08-12T11:16:00.066Z,112
2023-08-12T11:17:14.304Z,112
2023-08-12T11:18:28.543Z,118
2023-08-12T11:19:42.781Z,123
2023-08-12T11:20:57.020Z,118
2023-08-12T11:22:11.259Z,106
2023-08-12T11:23:25.497Z,95
2023-08-12T11:24:39.736Z,90
2023-08-12T11:25:53.975Z,84
2023-08-12T11:27:08.213Z,90
2023-08-12T11:28:22.452Z,106
2023-08-12T11:29:36.690Z,123
2023-08-12T11:30:50.929Z,135
2023-08-12T11:32:04.184Z,146
2023-08-12T11:33:18.423Z,140
2023-08-12T11:34:32.661Z,140
2023-08-12T11:35:46.900Z,135
2023-08-12T11:37:01.138Z,135
2023-08-12T11:38:15.377Z,135
2023-08-12T11:39:29.615Z,146
2023-08-12T11:40:43.854Z,163
2023-08-12T11:41:58.093Z,185
2023-08-12T11:43:12.331Z,202
2023-08-12T11:44:26.570Z,213
2023-08-12T11:45:39.830Z,230
2023-08-12T11:46:53.090Z,247
2023-08-12T11:48:06.345Z,270
2023-08-12T11:49:20.583Z,286
2023-08-12T11:50:34.822Z,298
2023-08-12T11:51:49.060Z,309
2023-08-12T11:53:03.299Z,326
2023-08-12T11:54:17.538Z,337
2023-08-12T11:55:31.777Z,348
2023-08-12T11:56:46.015Z,360
2023-08-12T11:58:00.254Z,371
2023-08-12T11:59:14.492Z,376
2023-08-12T12:00:28.731Z,382
2023-08-12T12:01:42.970Z,382
2023-08-12T12:02:57.193Z,382
2023-08-12T12:04:10.463Z,365
2023-08-12T12:05:24.702Z,354
2023-08-12T12:06:38.941Z,343
2023-08-12T12:07:53.179Z,348
2023-08-12T12:09:07.418Z,365
2023-08-12T12:10:21.657Z,382
2023-08-12T12:11:35.895Z,382
2023-08-12T12:12:50.134Z,376
2023-08-12T12:14:04.373Z,371
2023-08-12T12:15:18.611Z,376
2023-08-12T12:16:32.850Z,382
2023-08-12T12:17:47.089Z,393
2023-08-12T12:19:01.328Z,376
2023-08-12T12:20:14.583Z,399
2023-08-12T12:21:28.821Z,388
2023-08-12T12:22:43.060Z,348
2023-08-12T12:23:57.299Z,365
2023-08-12T12:25:11.538Z,360
2023-08-12T12:26:25.777Z,315
2023-08-12T12:27:40.015Z,331
2023-08-12T12:28:54.254Z,315
2023-08-12T12:30:08.493Z,258
2023-08-12T12:31:22.732Z,275
2023-08-12T12:32:36.970Z,264
2023-08-12T12:33:51.209Z,264
2023-08-12T12:35:05.448Z,264
2023-08-12T12:36:18.703Z,258
2023-08-12T12:37:31.963Z,247
2023-08-12T12:38:45.218Z,241
2023-08-12T12:39:59.458Z,241
2023-08-12T12:41:13.697Z,236
2023-08-12T12:42:27.936Z,230
2023-08-12T12:43:42.174Z,230
2023-08-12T12:44:56.413Z,225
2023-08-12T12:46:10.652Z,225
2023-08-12T12:47:24.891Z,230
2023-08-12T12:48:39.130Z,230
2023-08-12T12:49:53.369Z,236
2023-08-12T12:51:07.608Z,241
2023-08-12T12:52:21.847Z,258
2023-08-12T12:53:36.086Z,275
2023-08-12T12:54:49.341Z,292
2023-08-12T12:56:03.580Z,315
2023-08-12T12:57:17.818Z,337
2023-08-12T12:58:32.057Z,354
2023-08-12T12:59:46.296Z,360
2023-08-12T13:01:00.535Z,354
2023-08-12T13:02:13.796Z,348
2023-08-12T13:03:27.056Z,348
2023-08-12T13:04:40.311Z,309
2023-08-12T13:05:54.550Z,331
2023-08-12T13:07:08.789Z,298
2023-08-12T13:08:23.027Z,298
2023-08-12T13:09:37.266Z,292
2023-08-12T13:10:51.505Z,264
2023-08-12T13:12:05.743Z,275
2023-08-12T13:13:19.982Z,247
2023-08-12T13:14:34.221Z,298
2023-08-12T13:15:48.460Z,298
2023-08-12T13:17:02.698Z,331
2023-08-12T13:18:16.937Z,354
2023-08-12T13:19:31.176Z,343
2023-08-12T13:20:44.431Z,343
2023-08-12T13:21:58.669Z,326
2023-08-12T13:23:12.908Z,343
2023-08-12T13:24:27.146Z,365
2023-08-12T13:25:41.385Z,365
2023-08-12T13:26:55.624Z,348
2023-08-12T13:28:09.863Z,320
2023-08-12T13:29:23.123Z,326
2023-08-12T13:30:37.362Z,303
2023-08-12T13:31:50.616Z,309
2023-08-12T13:33:04.855Z,315
2023-08-12T13:34:19.094Z,315
2023-08-12T13:35:33.333Z,331
2023-08-12T13:36:47.571Z,354
2023-08-12T13:38:01.810Z,371
2023-08-12T13:39:16.049Z,371
2023-08-12T13:40:30.287Z,376
2023-08-12T13:41:44.526Z,444
2023-08-12T13:42:58.765Z,399
2023-08-12T13:44:13.003Z,360
2023-08-12T13:45:27.242Z,343
2023-08-12T13:46:41.481Z,331
2023-08-12T13:47:54.736Z,320
2023-08-12T13:49:08.974Z,326
2023-08-12T13:50:23.213Z,343
2023-08-12T13:51:37.453Z,365
2023-08-12T13:52:51.692Z,388
2023-08-12T13:54:05.930Z,365
2023-08-12T13:55:20.169Z,354
2023-08-12T13:56:34.408Z,348
2023-08-12T13:57:48.647Z,348
2023-08-12T13:59:02.885Z,343
2023-08-12T14:00:17.125Z,337
2023-08-12T14:01:31.363Z,337
2023-08-12T14:02:45.602Z,331
2023-08-12T14:03:58.857Z,331
2023-08-12T14:05:13.096Z,331
2023-08-12T14:06:27.335Z,331
2023-08-12T14:07:41.573Z,320
2023-08-12T14:08:55.812Z,315
2023-08-12T14:10:10.051Z,320
2023-08-12T14:11:24.290Z,298
2023-08-12T14:12:38.529Z,264
2023-08-12T14:13:52.768Z,247
2023-08-12T14:15:07.006Z,286
2023-08-12T14:16:21.245Z,270
2023-08-12T14:17:35.484Z,225
2023-08-12T14:18:49.723Z,225
2023-08-12T14:20:02.978Z,230
2023-08-12T14:21:17.218Z,247
2023-08-12T14:22:31.457Z,264
2023-08-12T14:23:45.696Z,281
2023-08-12T14:24:59.934Z,286
2023-08-12T14:26:14.173Z,292
2023-08-12T14:27:28.412Z,298
2023-08-12T14:28:42.651Z,286
2023-08-12T14:29:56.889Z,264
2023-08-12T14:31:11.128Z,241
2023-08-12T14:32:25.367Z,213
2023-08-12T14:33:39.606Z,191
2023-08-12T14:34:53.845Z,180
2023-08-12T14:36:08.083Z,174
2023-08-12T14:37:22.322Z,180
2023-08-12T14:38:35.577Z,185
2023-08-12T14:39:49.816Z,202
2023-08-12T14:41:04.054Z,253
2023-08-12T14:42:18.293Z,281
2023-08-12T14:43:32.532Z,331
2023-08-12T14:44:46.771Z,348
2023-08-12T14:46:01.010Z,343
2023-08-12T14:47:15.248Z,326
2023-08-12T14:48:29.487Z,331
2023-08-12T14:49:43.726Z,320
2023-08-12T14:50:57.965Z,303
2023-08-12T14:52:12.204Z,286
2023-08-12T14:53:26.443Z,275
2023-08-12T14:54:40.682Z,264
2023-08-12T14:55:54.921Z,253
2023-08-12T14:57:09.159Z,241
2023-08-12T14:58:23.398Z,230
2023-08-12T14:59:37.637Z,219
2023-08-12T15:00:50.897Z,213
2023-08-12T15:02:05.136Z,208
2023-08-12T15:03:18.391Z,202
2023-08-12T15:04:32.630Z,196
2023-08-12T15:05:46.869Z,191
2023-08-12T15:07:01.108Z,185
2023-08-12T15:08:15.347Z,185
2023-08-12T15:09:29.585Z,185
2023-08-12T15:10:43.824Z,174
2023-08-12T15:11:58.063Z,168
2023-08-12T15:13:12.301Z,157
2023-08-12T15:14:25.562Z,151
2023-08-12T15:15:39.801Z,151
2023-08-12T15:16:54.040Z,151
2023-08-12T15:18:08.279Z,151
2023-08-12T15:19:22.518Z,140
2023-08-12T15:20:36.757Z,118
2023-08-12T15:21:50.995Z,101
2023-08-12T15:23:05.234Z,84
2023-08-12T15:24:19.473Z,78
2023-08-12T15:25:33.711Z,78
2023-08-12T15:26:47.950Z,78
2023-08-12T15:28:02.189Z,78
2023-08-12T15:29:16.427Z,84
2023-08-12T15:31:44.905Z,73
2023-08-12T15:32:58.160Z,67
2023-08-12T15:34:12.398Z,61
2023-08-12T15:35:26.637Z,61
2023-08-12T15:36:40.876Z,56
2023-08-12T15:37:55.115Z,56
2023-08-12T15:39:09.354Z,56
2023-08-12T15:40:23.593Z,50
2023-08-12T15:41:37.831Z,50
2023-08-12T15:42:52.070Z,45
2023-08-12T15:44:06.309Z,39
2023-08-12T15:45:20.547Z,39
2023-08-12T15:46:34.786Z,33
2023-08-12T15:47:49.025Z,28
2023-08-12T15:49:02.280Z,22
2023-08-12T15:50:16.519Z,22
2023-08-12T15:51:30.757Z,16
2023-08-12T15:52:44.996Z,16
2023-08-12T15:53:59.235Z,11
2023-08-12T15:55:13.474Z,11
2023-08-12T15:56:27.712Z,11
2023-08-12T15:57:41.951Z,11
2023-08-12T15:58:56.190Z,11
2023-08-12T16:00:10.429Z,11
2023-08-12T16:01:24.668Z,11
2023-08-12T16:02:38.907Z,11
2023-08-12T16:03:53.146Z,11
2023-08-12T16:05:06.401Z,11
2023-08-12T16:06:20.640Z,11
2023-08-12T16:07:34.879Z,11
2023-08-12T16:08:49.118Z,11
2023-08-12T16:10:03.358Z,11
2023-08-12T16:11:17.577Z,16
2023-08-12T16:12:31.835Z,16
2023-08-12T16:13:46.074Z,16
2023-08-12T16:15:00.313Z,16
2023-08-12T16:16:14.551Z,16
2023-08-12T16:17:28.790Z,22
2023-08-12T16:18:43.029Z,22
2023-08-12T16:19:57.268Z,22
2023-08-12T16:21:10.523Z,28
2023-08-12T16:22:24.761Z,33
2023-08-12T16:23:39.000Z,33
2023-08-12T16:24:53.238Z,39
2023-08-12T16:26:07.477Z,45
2023-08-12T16:27:21.715Z,45
2023-08-12T16:28:35.954Z,45
2023-08-12T16:29:50.192Z,45
2023-08-12T16:31:04.431Z,45
2023-08-12T16:32:18.670Z,45
2023-08-12T16:33:32.909Z,45
2023-08-12T16:34:47.147Z,39
2023-08-12T16:36:01.386Z,39
2023-08-12T16:37:14.641Z,39
2023-08-12T16:38:28.879Z,39
2023-08-12T16:39:43.118Z,33
2023-08-12T16:40:57.356Z,28
2023-08-12T16:42:11.595Z,28
2023-08-12T16:43:25.834Z,33
2023-08-12T16:44:40.073Z,39
2023-08-12T16:45:54.311Z,45
2023-08-12T16:47:08.550Z,45
2023-08-12T16:48:22.788Z,50
2023-08-12T16:49:37.027Z,50
2023-08-12T16:50:51.266Z,56
2023-08-12T16:52:05.505Z,61
2023-08-12T16:53:18.759Z,67
2023-08-12T16:54:32.998Z,78
2023-08-12T16:55:47.237Z,90
2023-08-12T16:57:01.475Z,101
2023-08-12T16:58:15.714Z,112
2023-08-12T16:59:29.952Z,123
2023-08-12T17:00:44.191Z,129
2023-08-12T17:01:58.430Z,129
2023-08-12T17:03:12.668Z,129
2023-08-12T17:04:26.000Z,135
2023-08-12T17:05:41.146Z,140
2023-08-12T17:06:55.384Z,135
2023-08-12T17:08:09.623Z,135
2023-08-12T17:09:22.878Z,140
2023-08-12T17:10:37.116Z,146
2023-08-12T17:11:51.355Z,140
2023-08-12T17:13:05.593Z,140
2023-08-12T17:14:19.832Z,140
2023-08-12T17:15:34.071Z,146
2023-08-12T17:16:48.310Z,157
2023-08-12T17:18:02.548Z,163
2023-08-12T17:19:16.787Z,163
2023-08-12T17:20:31.025Z,163
2023-08-12T17:21:45.264Z,157
2023-08-12T17:22:59.502Z,157
2023-08-12T17:24:13.741Z,157
2023-08-12T17:25:26.996Z,157
2023-08-12T17:26:41.234Z,146